createdAt,value
2019-05-01T00:02:08.781Z,48.57
2019-05-01T00:04:39.929Z,39.00
2019-05-01T00:07:11.137Z,38.50
2019-05-01T00:09:40.713Z,44.70
2019-05-01T00:12:09.996Z,40.23
2019-05-01T00:14:39.689Z,41.47
2019-05-01T00:17:09.211Z,36.57
2019-05-01T00:19:38.480Z,40.47
2019-05-01T00:22:08.962Z,39.43
2019-05-01T00:24:38.317Z,44.83
2019-05-01T00:27:07.893Z,41.83
2019-05-01T00:29:37.403Z,44.63
2019-05-01T00:32:06.743Z,45.23
2019-05-01T00:34:37.230Z,40.67
2019-05-01T00:37:06.497Z,41.43
2019-05-01T00:39:35.777Z,49.17
2019-05-01T00:42:05.059Z,46.30
2019-05-01T00:44:34.337Z,46.07
2019-05-01T00:47:03.841Z,45.70
2019-05-01T00:49:33.349Z,41.07
2019-05-01T00:52:02.856Z,39.33
2019-05-01T00:54:33.776Z,39.40
2019-05-01T00:57:10.410Z,45.37
2019-05-01T00:59:44.586Z,48.80
2019-05-01T01:02:15.564Z,46.13
2019-05-01T01:04:45.134Z,44.07
2019-05-01T01:07:14.418Z,45.20
2019-05-01T01:09:43.709Z,46.65
2019-05-01T01:12:13.237Z,52.70
2019-05-01T01:14:42.521Z,51.70
2019-05-01T01:17:11.809Z,49.67
2019-05-01T01:19:41.098Z,47.15
2019-05-01T01:22:10.369Z,45.33
2019-05-01T01:24:40.050Z,44.10
2019-05-01T01:27:09.469Z,42.03
2019-05-01T01:29:39.065Z,46.33
2019-05-01T01:32:08.407Z,43.23
2019-05-01T01:34:37.913Z,40.40
2019-05-01T01:37:07.205Z,40.40
2019-05-01T01:39:36.661Z,44.33
2019-05-01T01:42:07.061Z,42.93
2019-05-01T01:44:47.246Z,39.90
2019-05-01T01:47:15.917Z,45.12
2019-05-01T01:49:45.264Z,44.65
2019-05-01T01:52:15.118Z,44.53
2019-05-01T01:54:44.400Z,39.60
2019-05-01T01:57:13.920Z,42.15
2019-05-01T01:59:43.438Z,39.70
2019-05-01T02:02:17.053Z,40.25
2019-05-01T02:04:50.645Z,42.05
2019-05-01T02:07:20.065Z,41.70
2019-05-01T02:09:49.416Z,43.87
2019-05-01T02:12:19.213Z,47.13
2019-05-01T02:14:48.672Z,43.73
2019-05-01T02:17:18.181Z,49.00
2019-05-01T02:19:47.457Z,46.40
2019-05-01T02:22:16.745Z,44.63
2019-05-01T02:24:46.024Z,43.40
2019-05-01T02:27:19.869Z,48.42
2019-05-01T02:29:51.121Z,47.17
2019-05-01T02:32:23.150Z,47.67
2019-05-01T02:34:54.869Z,46.92
2019-05-01T02:37:26.590Z,51.58
2019-05-01T02:39:58.109Z,52.70
2019-05-01T02:42:30.734Z,51.90
2019-05-01T02:45:02.053Z,48.38
2019-05-01T02:47:36.178Z,48.78
2019-05-01T02:50:11.217Z,53.60
2019-05-01T02:52:43.641Z,51.35
2019-05-01T02:55:14.894Z,46.10
2019-05-01T02:57:45.149Z,50.55
2019-05-01T03:00:14.666Z,50.52
2019-05-01T03:02:43.950Z,46.55
2019-05-01T03:05:13.293Z,50.35
2019-05-01T03:07:43.343Z,47.33
2019-05-01T03:10:13.073Z,49.63
2019-05-01T03:12:44.980Z,51.77
2019-05-01T03:15:15.358Z,52.27
2019-05-01T03:18:04.657Z,50.65
2019-05-01T03:20:51.878Z,49.45
2019-05-01T03:23:28.821Z,53.52
2019-05-01T03:25:58.165Z,52.25
2019-05-01T03:28:27.752Z,62.58
2019-05-01T03:30:57.326Z,57.03
2019-05-01T03:33:26.686Z,57.23
2019-05-01T03:35:56.256Z,57.65
2019-05-01T03:38:26.357Z,56.98
2019-05-01T03:40:56.366Z,61.30
2019-05-01T03:43:26.413Z,59.53
2019-05-01T03:45:56.274Z,54.03
2019-05-01T03:48:26.162Z,57.27
2019-05-01T03:50:55.617Z,63.20
2019-05-01T03:53:26.400Z,54.80
2019-05-01T03:55:55.955Z,53.80
2019-05-01T03:58:26.965Z,51.33
2019-05-01T04:01:03.619Z,52.35
2019-05-01T04:03:40.134Z,54.33
2019-05-01T04:06:09.650Z,53.08
2019-05-01T04:08:38.997Z,64.20
2019-05-01T04:11:08.281Z,58.63
2019-05-01T04:13:37.855Z,60.40
2019-05-01T04:16:07.213Z,54.50
2019-05-01T04:18:36.725Z,52.27
2019-05-01T04:21:08.693Z,56.80
2019-05-01T04:23:38.703Z,59.93
2019-05-01T04:26:08.466Z,56.13
2019-05-01T04:28:42.686Z,56.28
2019-05-01T04:31:28.911Z,56.68
2019-05-01T04:34:03.235Z,70.67
2019-05-01T04:36:35.589Z,59.58
2019-05-01T04:39:07.113Z,65.78
2019-05-01T04:41:36.536Z,63.90
2019-05-01T04:44:06.323Z,73.67
2019-05-01T04:46:35.748Z,71.92
2019-05-01T04:49:05.310Z,70.52
2019-05-01T04:51:35.529Z,70.37
2019-05-01T04:54:05.275Z,63.17
2019-05-01T04:56:34.556Z,63.25
2019-05-01T04:59:05.072Z,62.48
2019-05-01T05:01:57.006Z,55.63
2019-05-01T05:04:25.604Z,56.10
2019-05-01T05:06:55.700Z,74.97
2019-05-01T05:09:45.441Z,67.42
2019-05-01T05:12:23.553Z,64.22
2019-05-01T05:15:10.875Z,65.40
2019-05-01T05:17:40.429Z,110.80
2019-05-01T05:20:09.950Z,168.50
2019-05-01T05:22:39.410Z,126.67
2019-05-01T05:25:09.057Z,146.00
2019-05-01T05:27:39.945Z,176.07
2019-05-01T05:30:09.367Z,150.47
2019-05-01T05:32:41.057Z,216.20
2019-05-01T05:35:12.673Z,85.67
2019-05-01T05:37:53.871Z,137.25
2019-05-01T05:40:25.095Z,112.00
2019-05-01T05:42:54.444Z,102.40
2019-05-01T05:45:23.861Z,66.97
2019-05-01T05:47:53.289Z,56.25
2019-05-01T05:50:24.602Z,52.83
2019-05-01T05:52:57.689Z,55.75
2019-05-01T05:55:45.783Z,53.80
2019-05-01T05:58:32.382Z,56.75
2019-05-01T06:01:20.285Z,55.65
2019-05-01T06:03:56.337Z,57.73
2019-05-01T06:06:35.526Z,53.45
2019-05-01T06:09:08.937Z,56.33
2019-05-01T06:11:44.553Z,53.58
2019-05-01T06:14:32.705Z,54.33
2019-05-01T06:17:03.787Z,52.25
2019-05-01T06:19:34.701Z,59.27
2019-05-01T06:22:10.314Z,50.07
2019-05-01T06:24:48.177Z,56.98
2019-05-01T06:27:17.700Z,48.87
2019-05-01T06:29:47.524Z,52.10
2019-05-01T06:32:16.885Z,53.60
2019-05-01T06:34:46.851Z,54.47
2019-05-01T06:37:16.133Z,46.77
2019-05-01T06:39:48.050Z,48.90
2019-05-01T06:42:17.666Z,48.60
2019-05-01T06:44:55.170Z,50.27
2019-05-01T06:47:26.128Z,46.53
2019-05-01T06:50:14.837Z,47.10
2019-05-01T06:52:44.345Z,49.67
2019-05-01T06:55:14.021Z,47.53
2019-05-01T06:57:44.027Z,53.53
2019-05-01T07:00:16.081Z,54.60
2019-05-01T07:02:47.462Z,58.67
2019-05-01T07:05:16.885Z,54.70
2019-05-01T07:07:48.143Z,58.33
2019-05-01T07:10:29.700Z,56.83
2019-05-01T07:12:48.717Z,67.63
2019-05-01T07:15:21.855Z,51.80
2019-05-01T07:17:49.770Z,55.57
2019-05-01T07:20:20.686Z,58.00
2019-05-01T07:22:50.161Z,57.70
2019-05-01T07:25:19.754Z,72.00
2019-05-01T07:27:49.028Z,66.87
2019-05-01T07:30:21.113Z,67.77
2019-05-01T07:32:50.528Z,62.90
2019-05-01T07:35:19.949Z,67.63
2019-05-01T07:37:49.525Z,63.23
2019-05-01T07:40:20.739Z,63.70
2019-05-01T07:42:52.625Z,77.80
2019-05-01T07:45:29.609Z,74.63
2019-05-01T07:48:01.020Z,70.07
2019-05-01T07:50:32.623Z,82.73
2019-05-01T07:53:02.143Z,90.10
2019-05-01T07:55:37.446Z,114.10
2019-05-01T07:58:15.816Z,104.07
2019-05-01T08:00:53.675Z,105.83
2019-05-01T08:03:23.223Z,113.60
2019-05-01T08:05:52.741Z,133.83
2019-05-01T08:08:22.018Z,134.80
2019-05-01T08:10:51.531Z,122.33
2019-05-01T08:13:21.045Z,122.87
2019-05-01T08:15:50.325Z,129.43
2019-05-01T08:18:24.216Z,125.17
2019-05-01T08:21:12.505Z,135.37
2019-05-01T08:23:42.585Z,120.87
2019-05-01T08:26:12.992Z,127.47
2019-05-01T08:28:49.694Z,136.97
2019-05-01T08:31:36.674Z,126.47
2019-05-01T08:34:25.318Z,125.70
2019-05-01T08:36:54.560Z,120.10
2019-05-01T08:39:23.845Z,107.67
2019-05-01T08:41:53.133Z,122.70
2019-05-01T08:44:24.805Z,115.93
2019-05-01T08:47:02.390Z,118.13
2019-05-01T08:49:49.272Z,113.27
2019-05-01T08:52:14.037Z,114.67
2019-05-01T08:54:43.365Z,110.37
2019-05-01T08:57:12.629Z,106.43
2019-05-01T08:59:42.152Z,101.53
2019-05-01T09:02:11.429Z,109.83
2019-05-01T09:04:40.721Z,108.63
2019-05-01T09:07:10.002Z,105.97
2019-05-01T09:09:44.854Z,127.40
2019-05-01T09:12:11.753Z,118.10
2019-05-01T09:14:41.945Z,126.23
2019-05-01T09:17:11.224Z,135.00
2019-05-01T09:19:40.751Z,124.57
2019-05-01T09:22:10.360Z,139.17
2019-05-01T09:24:39.653Z,129.30
2019-05-01T09:27:29.503Z,132.77
2019-05-01T09:29:58.472Z,128.63
2019-05-01T09:32:27.752Z,120.53
2019-05-01T09:34:58.419Z,129.97
2019-05-01T09:37:27.741Z,127.97
2019-05-01T09:39:57.101Z,121.43
2019-05-01T09:42:26.389Z,117.90
2019-05-01T09:44:55.683Z,130.50
2019-05-01T09:47:26.773Z,125.23
2019-05-01T09:49:56.108Z,121.00
2019-05-01T09:52:27.060Z,123.00
2019-05-01T09:54:58.008Z,119.90
2019-05-01T09:57:27.516Z,122.80
2019-05-01T09:59:56.812Z,117.00
2019-05-01T10:02:26.181Z,103.53
2019-05-01T10:04:55.466Z,107.77
2019-05-01T10:07:28.955Z,101.73
2019-05-01T10:09:55.733Z,102.50
2019-05-01T10:12:25.017Z,111.07
2019-05-01T10:14:54.301Z,99.57
2019-05-01T10:17:23.652Z,115.23
2019-05-01T10:19:52.941Z,59.30
2019-05-01T10:22:22.450Z,101.03
2019-05-01T10:24:52.701Z,95.10
2019-05-01T10:27:23.633Z,109.37
2019-05-01T10:30:10.814Z,110.93
2019-05-01T10:32:44.672Z,107.00
2019-05-01T10:35:24.272Z,107.37
2019-05-01T10:37:53.559Z,116.17
2019-05-01T10:40:27.109Z,105.27
2019-05-01T10:42:53.833Z,108.37
2019-05-01T10:45:23.129Z,114.23
2019-05-01T10:47:52.402Z,103.40
2019-05-01T10:50:21.794Z,109.03
2019-05-01T10:52:51.073Z,97.47
2019-05-01T10:55:20.578Z,92.10
2019-05-01T10:57:49.933Z,95.33
2019-05-01T11:00:20.021Z,95.37
2019-05-01T11:02:49.382Z,95.20
2019-05-01T11:05:18.658Z,93.33
2019-05-01T11:07:48.240Z,94.10
2019-05-01T11:10:17.580Z,99.83
2019-05-01T11:12:47.089Z,93.90
2019-05-01T11:15:16.509Z,87.23
2019-05-01T11:17:45.785Z,84.20
2019-05-01T11:20:15.104Z,84.97
2019-05-01T11:22:45.690Z,75.57
2019-05-01T11:25:16.965Z,78.23
2019-05-01T11:27:46.249Z,90.33
2019-05-01T11:30:16.073Z,93.93
2019-05-01T11:32:46.989Z,80.23
2019-05-01T11:35:17.969Z,81.60
2019-05-01T11:37:48.958Z,82.03
2019-05-01T11:40:20.014Z,80.27
2019-05-01T11:42:49.293Z,74.37
2019-05-01T11:45:19.304Z,78.80
2019-05-01T11:47:48.588Z,78.23
2019-05-01T11:50:17.911Z,77.03
2019-05-01T11:52:47.465Z,78.60
2019-05-01T11:55:16.737Z,78.30
2019-05-01T11:57:46.321Z,84.70
2019-05-01T12:00:17.810Z,75.90
2019-05-01T12:02:47.389Z,73.00
2019-05-01T12:05:16.667Z,76.77
2019-05-01T12:07:46.070Z,75.23
2019-05-01T12:10:16.110Z,77.50
2019-05-01T12:12:45.621Z,76.13
2019-05-01T12:15:17.615Z,84.13
2019-05-01T12:17:48.533Z,79.77
2019-05-01T12:20:18.520Z,79.73
2019-05-01T12:22:51.075Z,87.50
2019-05-01T12:25:18.841Z,92.17
2019-05-01T12:27:48.116Z,92.17
2019-05-01T12:30:19.449Z,82.77
2019-05-01T12:32:48.970Z,84.80
2019-05-01T12:35:18.258Z,88.63
2019-05-01T12:37:47.533Z,90.30
2019-05-01T12:40:17.587Z,78.10
2019-05-01T12:42:46.930Z,87.63
2019-05-01T12:45:17.015Z,79.57
2019-05-01T12:47:54.009Z,75.47
2019-05-01T12:50:23.429Z,82.27
2019-05-01T12:52:59.768Z,81.80
2019-05-01T12:55:30.713Z,85.30
2019-05-01T12:57:59.989Z,84.80
2019-05-01T13:00:40.884Z,82.30
2019-05-01T13:03:10.697Z,79.40
2019-05-01T13:05:39.977Z,83.90
2019-05-01T13:08:09.251Z,87.27
2019-05-01T13:10:39.601Z,88.07
2019-05-01T13:13:11.155Z,87.10
2019-05-01T13:15:39.861Z,84.30
2019-05-01T13:18:09.141Z,89.60
2019-05-01T13:20:38.437Z,86.13
2019-05-01T13:23:07.715Z,80.47
2019-05-01T13:25:36.993Z,87.83
2019-05-01T13:28:13.758Z,87.00
2019-05-01T13:30:44.910Z,89.63
2019-05-01T13:33:14.269Z,89.50
2019-05-01T13:35:43.537Z,86.50
2019-05-01T13:38:12.890Z,80.40
2019-05-01T13:40:43.709Z,87.77
2019-05-01T13:43:12.992Z,93.23
2019-05-01T13:45:42.269Z,81.00
2019-05-01T13:48:11.833Z,80.30
2019-05-01T13:50:41.109Z,89.60
2019-05-01T13:53:10.385Z,89.40
2019-05-01T13:55:39.728Z,84.47
2019-05-01T13:58:09.349Z,86.20
2019-05-01T14:00:38.621Z,87.87
2019-05-01T14:03:08.149Z,107.13
2019-05-01T14:05:37.429Z,104.47
2019-05-01T14:08:07.160Z,100.90
2019-05-01T14:10:36.445Z,104.77
2019-05-01T14:13:05.724Z,111.30
2019-05-01T14:15:35.001Z,104.57
2019-05-01T14:18:04.585Z,111.77
2019-05-01T14:20:44.049Z,114.03
2019-05-01T14:23:17.621Z,112.13
2019-05-01T14:26:06.170Z,96.77
2019-05-01T14:28:35.993Z,117.37
2019-05-01T14:31:06.477Z,114.03
2019-05-01T14:33:36.034Z,113.50
2019-05-01T14:36:06.437Z,104.23
2019-05-01T14:38:35.926Z,105.43
2019-05-01T14:41:05.337Z,107.90
2019-05-01T14:43:35.593Z,109.60
2019-05-01T14:46:05.041Z,115.73
2019-05-01T14:48:34.330Z,110.13
2019-05-01T14:51:04.109Z,113.93
2019-05-01T14:53:33.405Z,101.40
2019-05-01T14:56:02.929Z,110.07
2019-05-01T14:58:32.222Z,110.13
2019-05-01T15:01:01.735Z,115.17
2019-05-01T15:03:31.252Z,104.57
2019-05-01T15:06:00.533Z,108.80
2019-05-01T15:08:30.054Z,109.63
2019-05-01T15:10:59.336Z,110.43
2019-05-01T15:13:46.594Z,112.07
2019-05-01T15:16:29.605Z,120.20
2019-05-01T15:19:03.161Z,110.70
2019-05-01T15:21:32.441Z,105.97
2019-05-01T15:24:01.733Z,106.40
2019-05-01T15:26:31.004Z,116.53
2019-05-01T15:29:00.406Z,120.33
2019-05-01T15:31:29.753Z,97.03
2019-05-01T15:33:59.257Z,112.00
2019-05-01T15:36:28.545Z,126.53
2019-05-01T15:38:58.529Z,117.80
2019-05-01T15:41:32.134Z,114.53
2019-05-01T15:44:06.075Z,110.80
2019-05-01T15:46:37.233Z,104.33
2019-05-01T15:49:06.513Z,101.43
2019-05-01T15:51:35.797Z,112.17
2019-05-01T15:54:05.306Z,123.83
2019-05-01T15:56:34.590Z,92.47
2019-05-01T15:59:03.939Z,108.93
2019-05-01T16:01:33.226Z,104.90
2019-05-01T16:04:02.501Z,103.03
2019-05-01T16:06:31.792Z,104.37
2019-05-01T16:09:01.457Z,106.77
2019-05-01T16:11:37.045Z,100.43
2019-05-01T16:14:06.396Z,115.90
2019-05-01T16:16:35.686Z,101.47
2019-05-01T16:19:04.970Z,105.10
2019-05-01T16:21:34.521Z,93.20
2019-05-01T16:24:04.069Z,90.60
2019-05-01T16:26:33.644Z,91.90
2019-05-01T16:29:03.141Z,86.57
2019-05-01T16:31:32.433Z,75.70
2019-05-01T16:34:01.710Z,89.97
2019-05-01T16:36:30.989Z,91.53
2019-05-01T16:39:07.626Z,82.23
2019-05-01T16:41:37.222Z,87.63
2019-05-01T16:44:06.830Z,88.90
2019-05-01T16:46:36.121Z,80.93
2019-05-01T16:49:06.050Z,92.50
2019-05-01T16:51:37.143Z,100.20
2019-05-01T16:54:07.749Z,98.70
2019-05-01T16:56:37.333Z,99.43
2019-05-01T16:59:06.940Z,108.37
2019-05-01T17:01:55.944Z,100.80
2019-05-01T17:04:32.625Z,103.40
2019-05-01T17:07:03.924Z,104.10
2019-05-01T17:09:34.858Z,100.57
2019-05-01T17:12:04.901Z,100.53
2019-05-01T17:14:34.675Z,108.27
2019-05-01T17:17:05.963Z,110.57
2019-05-01T17:19:35.556Z,98.80
2019-05-01T17:22:09.357Z,99.73
2019-05-01T17:24:36.418Z,99.50
2019-05-01T17:27:05.773Z,86.67
2019-05-01T17:29:35.166Z,88.10
2019-05-01T17:32:05.526Z,88.00
2019-05-01T17:34:34.859Z,75.50
2019-05-01T17:37:04.237Z,71.80
2019-05-01T17:39:33.517Z,78.63
2019-05-01T17:42:03.936Z,68.37
2019-05-01T17:44:33.358Z,72.13
2019-05-01T17:47:02.730Z,68.97
2019-05-01T17:49:32.541Z,69.87
2019-05-01T17:52:01.921Z,57.93
2019-05-01T17:54:31.446Z,61.93
2019-05-01T17:57:00.886Z,70.77
2019-05-01T17:59:30.181Z,69.27
2019-05-01T18:02:05.349Z,63.97
2019-05-01T18:04:37.342Z,74.73
2019-05-01T18:07:06.800Z,71.00
2019-05-01T18:09:36.443Z,62.97
2019-05-01T18:12:06.030Z,71.27
2019-05-01T18:14:35.309Z,72.03
2019-05-01T18:17:05.599Z,62.43
2019-05-01T18:19:34.893Z,71.67
2019-05-01T18:22:12.137Z,61.90
2019-05-01T18:24:43.078Z,67.73
2019-05-01T18:27:30.764Z,73.57
2019-05-01T18:30:01.710Z,68.30
2019-05-01T18:32:47.261Z,63.43
2019-05-01T18:35:14.374Z,62.10
2019-05-01T18:37:49.022Z,62.00
2019-05-01T18:40:25.713Z,64.43
2019-05-01T18:42:55.157Z,61.50
2019-05-01T18:45:49.810Z,63.13
2019-05-01T18:48:20.225Z,59.73
2019-05-01T18:50:55.008Z,62.40
2019-05-01T18:53:21.181Z,67.57
2019-05-01T18:55:50.470Z,62.97
2019-05-01T18:58:20.085Z,65.63
2019-05-01T19:00:49.777Z,65.00
2019-05-01T19:03:19.060Z,59.93
2019-05-01T19:05:48.430Z,63.13
2019-05-01T19:08:18.089Z,66.67
2019-05-01T19:10:47.437Z,59.53
2019-05-01T19:13:17.449Z,62.87
2019-05-01T19:15:46.766Z,58.83
2019-05-01T19:18:16.129Z,63.60
2019-05-01T19:20:58.621Z,62.20
2019-05-01T19:23:16.534Z,63.30
2019-05-01T19:25:47.381Z,61.70
2019-05-01T19:28:17.213Z,58.97
2019-05-01T19:30:46.817Z,66.40
2019-05-01T19:33:16.272Z,63.03
2019-05-01T19:35:46.029Z,64.73
2019-05-01T19:38:15.899Z,65.30
2019-05-01T19:40:45.348Z,63.30
2019-05-01T19:43:14.673Z,64.07
2019-05-01T19:45:43.988Z,78.93
2019-05-01T19:48:14.517Z,72.63
2019-05-01T19:50:47.919Z,68.37
2019-05-01T19:53:15.905Z,73.43
2019-05-01T19:55:46.744Z,72.00
2019-05-01T19:58:17.088Z,75.07
2019-05-01T20:00:52.869Z,71.83
2019-05-01T20:03:22.492Z,71.33
2019-05-01T20:05:51.822Z,68.87
2019-05-01T20:08:22.514Z,66.00
2019-05-01T20:10:51.789Z,66.40
2019-05-01T20:13:21.108Z,69.80
2019-05-01T20:15:50.721Z,69.67
2019-05-01T20:18:20.081Z,67.07
2019-05-01T20:20:49.429Z,61.57
2019-05-01T20:23:19.789Z,66.53
2019-05-01T20:25:51.091Z,64.30
2019-05-01T20:28:22.262Z,70.33
2019-05-01T20:30:51.156Z,67.60
2019-05-01T20:33:20.858Z,67.17
2019-05-01T20:35:50.474Z,64.73
2019-05-01T20:38:20.062Z,61.70
2019-05-01T20:40:49.341Z,63.40
2019-05-01T20:43:18.640Z,63.27
2019-05-01T20:45:49.358Z,69.00
2019-05-01T20:48:23.743Z,67.50
2019-05-01T20:50:49.905Z,68.00
2019-05-01T20:53:19.192Z,66.80
2019-05-01T20:55:50.123Z,75.10
2019-05-01T20:58:21.041Z,70.33
2019-05-01T21:00:53.396Z,69.57
2019-05-01T21:03:22.949Z,72.20
2019-05-01T21:05:56.650Z,69.37
2019-05-01T21:08:44.057Z,71.83
2019-05-01T21:11:15.052Z,71.27
2019-05-01T21:13:44.577Z,79.97
2019-05-01T21:16:14.187Z,78.90
2019-05-01T21:18:43.825Z,74.60
2019-05-01T21:21:14.172Z,76.03
2019-05-01T21:23:48.225Z,75.97
2019-05-01T21:26:15.049Z,81.33
2019-05-01T21:28:44.999Z,72.43
2019-05-01T21:31:14.598Z,71.07
2019-05-01T21:33:46.333Z,77.67
2019-05-01T21:36:16.165Z,83.00
2019-05-01T21:38:45.450Z,76.40
2019-05-01T21:41:15.057Z,90.20
2019-05-01T21:43:45.718Z,77.17
2019-05-01T21:46:15.008Z,80.70
2019-05-01T21:48:44.359Z,82.70
2019-05-01T21:51:14.065Z,77.30
2019-05-01T21:53:46.404Z,84.53
2019-05-01T21:56:14.325Z,82.43
2019-05-01T21:58:45.247Z,91.33
2019-05-01T22:01:15.018Z,80.77
2019-05-01T22:03:44.625Z,85.40
2019-05-01T22:06:15.387Z,88.90
2019-05-01T22:08:46.517Z,88.37
2019-05-01T22:11:15.795Z,87.40
2019-05-01T22:13:45.073Z,83.63
2019-05-01T22:16:18.464Z,81.53
2019-05-01T22:18:51.689Z,80.47
2019-05-01T22:21:35.021Z,90.60
2019-05-01T22:24:18.619Z,83.07
2019-05-01T22:27:07.766Z,81.77
2019-05-01T22:29:51.486Z,87.60
2019-05-01T22:32:27.682Z,95.03
2019-05-01T22:34:58.061Z,89.43
2019-05-01T22:37:27.349Z,95.37
2019-05-01T22:40:03.945Z,85.73
2019-05-01T22:42:33.233Z,90.97
2019-05-01T22:45:02.569Z,100.20
2019-05-01T22:47:31.925Z,114.90
2019-05-01T22:50:01.276Z,107.30
2019-05-01T22:52:30.596Z,116.83
2019-05-01T22:54:59.880Z,123.90
2019-05-01T22:57:29.173Z,110.63
2019-05-01T22:59:58.749Z,122.67
2019-05-01T23:02:29.668Z,102.53
2019-05-01T23:04:59.324Z,102.57
2019-05-01T23:07:28.588Z,104.97
2019-05-01T23:10:02.880Z,101.47
2019-05-01T23:12:29.173Z,99.67
2019-05-01T23:14:58.628Z,100.50
2019-05-01T23:17:39.488Z,102.87
2019-05-01T23:20:10.385Z,98.20
2019-05-01T23:22:39.666Z,91.87
2019-05-01T23:25:09.292Z,98.10
2019-05-01T23:27:38.572Z,102.33
2019-05-01T23:30:10.118Z,99.80
2019-05-01T23:32:39.394Z,97.10
2019-05-01T23:35:09.025Z,98.53
2019-05-01T23:37:38.305Z,100.57
2019-05-01T23:40:10.949Z,94.17
2019-05-01T23:42:43.856Z,100.37
2019-05-01T23:45:11.025Z,104.97
2019-05-01T23:47:40.301Z,94.07
2019-05-01T23:50:10.032Z,96.10
2019-05-01T23:52:39.864Z,100.22
2019-05-01T23:55:09.854Z,106.00
2019-05-01T23:57:39.393Z,98.55
